الصفحة الرئيسية
METAR-TAF:

METAR-TAF

مطار :

مطار سيشل الدولي

فيكتوريا, ماهيه, سيشيل

دائرة عرض: 04-40S, خط طول: 055-31E, ارتفاع: 3 متر

مراقبة الطقس الحالي

تاريخ ووقت الإصدار 29 دقيقة قبل الساعة 19:00UTC
ريح 13 عقدة من الغرب/الشمال الغربي
درجة الحرارة 27°درجة مئوية
الرطوبة 79%
ضغط 1012 hPa
الرؤية 10 كم أو أكثر
غيوم قليلة على ارتفاع 1400 قدم, مزنة ركامية.
غيوم مفككة على ارتفاع 2000 قدم

METAR: FSIA 171900Z 30013KT 9999 FEW014CB BKN020 27/23 Q1012 TEMPO 8000 -SHRA

زمن: 23:29 (19:29 UTC)

توقعات

تاريخ ووقت الإصدار 2ساعات و 28 دقيقة قبل الساعة 17:01UTC
التوقعات صالحة من17 الساعة 18 UTC إلى 18 الساعة 18 UTC
ريح 10 عقدة من الغرب/الشمال الغربي
الرؤية 10 كم أو أكثر
غيوم قليلة على ارتفاع 1600 قدم, مزنة ركامية.
غيوم متفرقة على ارتفاع 2000 قدم
مؤقت
من 17 الساعة 18 UTC إلى 18 الساعة 06 UTC
ريح 15 عقدة من الغرب/الشمال الغربي تتزايد حتى 25 عقدة
الرؤية: 8000 متر
غيوم قليلة على ارتفاع 1200 قدم
غيوم قليلة على ارتفاع 1500 قدم, مزنة ركامية.
غيوم مفككة على ارتفاع 1800 قدم
زخات من المطر

TAF: FSIA 171701Z 1718/1818 30010KT 9999 FEW016CB SCT020 TEMPO 1718/1806 29015G25KT 8000 SHRA FEW012 FEW015CB BKN018

أرصاد الطقس والتوقعات من أكثر من 4000 مطار (تقارير الطقس للمطار METAR والتنبؤ بالطقس بالمطارTAF).

المحطات المتاحة هي النقط الصفراء والحمراء على الخريطة.

حرك المؤشر فوق النقطة لمعرفة اسم المحطة.

ثم انقر لمعرفة أرصاد وتوقعات الطقس.

لتغيير الخارطة: اضغط على الأزرار الخضراء مع رمز الصليب الأسود للتكبير. على الزر الأخضر مع شرطة للتصغير، أو على الأسهم الخضراء للخرائط المجاورة.


METAR-TAF: